松山國際航空站 - ATIS

METAR RCSS 201900Z VRB02KT 6000 FEW012 SCT040 24/21 Q1011 NOSIG RMK A2986=

站台狀態:Online
最後更新:2019-03-21 03:30:01